createdAt,value
2018-12-22T00:00:22.969Z,76.10
2018-12-22T00:01:26.253Z,76.20
2018-12-22T00:02:29.484Z,76.20
2018-12-22T00:03:32.931Z,76.20
2018-12-22T00:04:36.198Z,76.30
2018-12-22T00:05:39.456Z,76.40
2018-12-22T00:06:42.739Z,76.40
2018-12-22T00:07:46.008Z,76.80
2018-12-22T00:08:49.260Z,76.70
2018-12-22T00:09:52.529Z,76.80
2018-12-22T00:10:55.820Z,77.00
2018-12-22T00:11:59.056Z,77.50
2018-12-22T00:13:02.335Z,77.60
2018-12-22T00:14:05.601Z,77.40
2018-12-22T00:15:08.846Z,77.20
2018-12-22T00:16:12.086Z,77.30
2018-12-22T00:17:15.332Z,77.10
2018-12-22T00:18:18.564Z,77.20
2018-12-22T00:19:21.829Z,77.10
2018-12-22T00:20:25.063Z,77.20
2018-12-22T00:21:28.337Z,77.20
2018-12-22T00:22:31.624Z,77.20
2018-12-22T00:23:34.842Z,77.30
2018-12-22T00:24:38.091Z,77.30
2018-12-22T00:25:41.365Z,77.30
2018-12-22T00:26:45.388Z,77.20
2018-12-22T00:27:48.622Z,77.70
2018-12-22T00:28:51.884Z,77.30
2018-12-22T00:29:55.120Z,77.30
2018-12-22T00:30:58.361Z,77.90
2018-12-22T00:32:01.723Z,77.30
2018-12-22T00:33:05.071Z,77.30
2018-12-22T00:34:08.366Z,77.40
2018-12-22T00:35:11.650Z,77.40
2018-12-22T00:36:15.019Z,77.50
2018-12-22T00:37:18.320Z,77.60
2018-12-22T00:38:21.618Z,77.80
2018-12-22T00:39:24.860Z,77.80
2018-12-22T00:40:28.092Z,78.00
2018-12-22T00:41:31.350Z,78.00
2018-12-22T00:42:34.573Z,78.10
2018-12-22T00:43:37.836Z,78.10
2018-12-22T00:44:41.075Z,78.10
2018-12-22T00:45:44.391Z,78.10
2018-12-22T00:46:47.672Z,78.30
2018-12-22T00:47:50.950Z,78.40
2018-12-22T00:48:54.207Z,78.50
2018-12-22T00:49:57.526Z,78.50
2018-12-22T00:51:00.771Z,78.70
2018-12-22T00:52:04.145Z,79.00
2018-12-22T00:53:07.526Z,78.90
2018-12-22T00:54:11.005Z,79.50
2018-12-22T00:55:14.263Z,79.20
2018-12-22T00:56:17.535Z,79.20
2018-12-22T00:57:20.778Z,79.50
2018-12-22T00:58:30.669Z,80.00
2018-12-22T00:59:29.254Z,80.00
2018-12-22T01:00:32.535Z,80.00
2018-12-22T01:01:35.800Z,80.00
2018-12-22T01:02:39.039Z,80.00
2018-12-22T01:03:42.411Z,80.30
2018-12-22T01:04:45.652Z,80.40
2018-12-22T01:05:48.969Z,80.70
2018-12-22T01:06:52.821Z,80.60
2018-12-22T01:07:56.181Z,80.70
2018-12-22T01:08:59.484Z,80.90
2018-12-22T01:10:03.016Z,80.70
2018-12-22T01:11:06.252Z,81.00
2018-12-22T01:12:10.061Z,81.40
2018-12-22T01:13:13.430Z,81.40
2018-12-22T01:14:16.712Z,81.50
2018-12-22T01:15:19.946Z,81.50
2018-12-22T01:16:23.210Z,81.50
2018-12-22T01:17:26.538Z,81.90
2018-12-22T01:18:29.910Z,81.50
2018-12-22T01:19:33.167Z,81.90
2018-12-22T01:20:36.412Z,82.00
2018-12-22T01:21:39.647Z,82.10
2018-12-22T01:22:42.878Z,82.30
2018-12-22T01:23:46.159Z,82.10
2018-12-22T01:24:49.385Z,82.40
2018-12-22T01:25:52.655Z,82.30
2018-12-22T01:26:55.926Z,82.50
2018-12-22T01:27:59.483Z,82.50
2018-12-22T01:29:02.767Z,83.70
2018-12-22T01:30:08.123Z,83.10
2018-12-22T01:31:11.353Z,83.30
2018-12-22T01:32:14.727Z,83.20
2018-12-22T01:33:17.980Z,83.40
2018-12-22T01:34:21.244Z,83.40
2018-12-22T01:35:24.497Z,83.30
2018-12-22T01:36:27.738Z,83.30
2018-12-22T01:37:30.978Z,83.10
2018-12-22T01:38:34.247Z,83.60
2018-12-22T01:39:37.508Z,83.30
2018-12-22T01:40:40.755Z,83.40
2018-12-22T01:41:43.982Z,83.90
2018-12-22T01:42:47.221Z,83.90
2018-12-22T01:43:50.447Z,84.00
2018-12-22T01:44:53.919Z,84.00
2018-12-22T01:45:57.240Z,84.10
2018-12-22T01:47:00.491Z,83.90
2018-12-22T01:48:03.745Z,83.90
2018-12-22T01:49:07.045Z,83.70
2018-12-22T01:50:10.341Z,83.60
2018-12-22T01:51:13.595Z,83.60
2018-12-22T01:52:16.838Z,83.70
2018-12-22T01:53:20.088Z,83.60
2018-12-22T01:54:23.405Z,83.60
2018-12-22T01:55:26.678Z,83.60
2018-12-22T01:56:29.937Z,83.80
2018-12-22T01:57:33.185Z,84.40
2018-12-22T01:58:36.437Z,83.70
2018-12-22T01:59:39.683Z,83.60
2018-12-22T02:00:42.986Z,83.80
2018-12-22T02:01:46.264Z,83.90
2018-12-22T02:02:49.495Z,83.90
2018-12-22T02:03:52.777Z,84.00
2018-12-22T02:04:56.005Z,84.30
2018-12-22T02:05:59.540Z,84.00
2018-12-22T02:07:02.873Z,84.00
2018-12-22T02:08:06.103Z,83.90
2018-12-22T02:09:09.348Z,83.70
2018-12-22T02:10:12.584Z,83.70
2018-12-22T02:11:15.992Z,83.70
2018-12-22T02:12:19.209Z,83.60
2018-12-22T02:13:22.462Z,83.70
2018-12-22T02:14:25.807Z,83.60
2018-12-22T02:15:29.035Z,83.80
2018-12-22T02:16:32.296Z,83.80
2018-12-22T02:17:35.652Z,83.70
2018-12-22T02:18:38.908Z,83.70
2018-12-22T02:19:42.203Z,83.70
2018-12-22T02:20:45.448Z,83.70
2018-12-22T02:21:48.699Z,84.00
2018-12-22T02:22:51.950Z,83.90
2018-12-22T02:23:55.208Z,83.90
2018-12-22T02:24:58.468Z,83.90
2018-12-22T02:26:01.731Z,83.90
2018-12-22T02:27:05.071Z,83.90
2018-12-22T02:28:08.359Z,84.00
2018-12-22T02:29:11.605Z,84.00
2018-12-22T02:30:14.865Z,84.00
2018-12-22T02:31:18.270Z,84.00
2018-12-22T02:32:21.545Z,83.90
2018-12-22T02:33:24.799Z,84.30
2018-12-22T02:34:28.077Z,84.40
2018-12-22T02:35:31.323Z,84.60
2018-12-22T02:36:34.559Z,84.50
2018-12-22T02:37:37.843Z,84.60
2018-12-22T02:38:41.097Z,84.40
2018-12-22T02:39:44.386Z,84.60
2018-12-22T02:40:47.654Z,84.50
2018-12-22T02:41:50.927Z,84.60
2018-12-22T02:42:54.226Z,84.70
2018-12-22T02:43:57.563Z,84.80
2018-12-22T02:45:00.786Z,84.70
2018-12-22T02:46:04.012Z,84.70
2018-12-22T02:47:07.290Z,85.10
2018-12-22T02:48:10.569Z,85.00
2018-12-22T02:49:13.838Z,85.10
2018-12-22T02:50:17.066Z,85.10
2018-12-22T02:51:20.320Z,85.10
2018-12-22T02:52:23.567Z,85.00
2018-12-22T02:53:26.847Z,85.10
2018-12-22T02:54:30.079Z,85.40
2018-12-22T02:55:39.280Z,85.40
2018-12-22T02:56:48.413Z,85.60
2018-12-22T02:57:51.660Z,85.60
2018-12-22T02:58:54.938Z,85.70
2018-12-22T02:59:58.180Z,85.80
2018-12-22T03:01:01.480Z,86.00
2018-12-22T03:02:04.735Z,85.90
2018-12-22T03:03:07.999Z,86.00
2018-12-22T03:04:11.267Z,85.90
2018-12-22T03:05:14.587Z,85.90
2018-12-22T03:06:17.954Z,86.30
2018-12-22T03:07:21.182Z,86.40
2018-12-22T03:08:24.430Z,86.50
2018-12-22T03:09:27.696Z,86.50
2018-12-22T03:10:31.017Z,86.60
2018-12-22T03:11:34.249Z,86.40
2018-12-22T03:12:37.762Z,86.40
2018-12-22T03:13:41.045Z,86.70
2018-12-22T03:14:44.327Z,86.70
2018-12-22T03:15:47.602Z,86.90
2018-12-22T03:16:50.833Z,87.10
2018-12-22T03:17:54.072Z,87.30
2018-12-22T03:18:57.401Z,88.20
2018-12-22T03:20:00.614Z,87.40
2018-12-22T03:21:03.879Z,87.50
2018-12-22T03:22:07.131Z,87.70
2018-12-22T03:23:10.365Z,87.90
2018-12-22T03:24:13.672Z,88.20
2018-12-22T03:25:17.245Z,88.10
2018-12-22T03:26:20.489Z,88.30
2018-12-22T03:27:23.723Z,88.50
2018-12-22T03:28:26.971Z,88.80
2018-12-22T03:29:30.246Z,88.70
2018-12-22T03:30:33.501Z,88.70
2018-12-22T03:31:36.822Z,88.80
2018-12-22T03:32:40.072Z,88.80
2018-12-22T03:33:43.366Z,88.80
2018-12-22T03:34:46.617Z,89.00
2018-12-22T03:35:49.995Z,89.00
2018-12-22T03:36:53.259Z,88.90
2018-12-22T03:37:56.514Z,89.10
2018-12-22T03:38:59.758Z,89.00
2018-12-22T03:40:03.810Z,89.20
2018-12-22T03:41:07.148Z,89.00
2018-12-22T03:42:10.398Z,89.00
2018-12-22T03:43:13.669Z,89.00
2018-12-22T03:44:16.891Z,89.00
2018-12-22T03:45:20.127Z,88.90
2018-12-22T03:46:23.478Z,89.00
2018-12-22T03:47:26.934Z,89.00
2018-12-22T03:48:30.177Z,89.00
2018-12-22T03:49:33.413Z,88.80
2018-12-22T03:50:36.990Z,88.80
2018-12-22T03:51:40.272Z,88.70
2018-12-22T03:52:43.645Z,88.70
2018-12-22T03:53:46.938Z,88.60
2018-12-22T03:54:50.188Z,88.70
2018-12-22T03:55:53.417Z,89.20
2018-12-22T03:56:56.697Z,88.50
2018-12-22T03:57:59.925Z,88.40
2018-12-22T03:59:03.174Z,88.30
2018-12-22T04:00:06.748Z,88.20
2018-12-22T04:01:10.011Z,88.10
2018-12-22T04:02:13.286Z,88.10
2018-12-22T04:03:16.608Z,88.30
2018-12-22T04:04:19.844Z,88.10
2018-12-22T04:05:23.081Z,88.10
2018-12-22T04:06:26.319Z,88.00
2018-12-22T04:07:29.658Z,87.80
2018-12-22T04:08:32.975Z,87.80
2018-12-22T04:09:36.239Z,87.80
2018-12-22T04:10:39.502Z,87.80
2018-12-22T04:11:42.729Z,87.50
2018-12-22T04:12:45.978Z,87.30
2018-12-22T04:13:49.210Z,87.40
2018-12-22T04:14:52.447Z,87.30
2018-12-22T04:15:55.711Z,87.20
2018-12-22T04:16:58.946Z,87.10
2018-12-22T04:18:02.199Z,87.00
2018-12-22T04:19:05.422Z,86.70
2018-12-22T04:20:08.661Z,86.70
2018-12-22T04:21:11.914Z,86.70
2018-12-22T04:22:15.199Z,86.60
2018-12-22T04:23:18.440Z,86.60
2018-12-22T04:24:21.772Z,86.50
2018-12-22T04:25:25.023Z,86.40
2018-12-22T04:26:28.282Z,86.30
2018-12-22T04:27:31.500Z,86.30
2018-12-22T04:28:34.824Z,85.90
2018-12-22T04:29:38.058Z,85.90
2018-12-22T04:30:42.260Z,85.80
2018-12-22T04:31:45.515Z,85.60
2018-12-22T04:32:48.757Z,85.60
2018-12-22T04:33:52.182Z,85.70
2018-12-22T04:34:55.446Z,85.30
2018-12-22T04:35:58.669Z,84.80
2018-12-22T04:37:01.926Z,84.90
2018-12-22T04:38:05.162Z,85.00
2018-12-22T04:39:08.392Z,84.70
2018-12-22T04:40:11.762Z,84.60
2018-12-22T04:41:14.998Z,84.40
2018-12-22T04:42:18.224Z,84.00
2018-12-22T04:43:21.449Z,84.00
2018-12-22T04:44:24.757Z,84.10
2018-12-22T04:45:28.090Z,83.50
2018-12-22T04:46:31.384Z,82.70
2018-12-22T04:47:34.617Z,83.20
2018-12-22T04:48:37.854Z,83.40
2018-12-22T04:49:41.144Z,83.20
2018-12-22T04:50:44.365Z,82.70
2018-12-22T04:51:47.670Z,82.90
2018-12-22T04:52:50.909Z,82.90
2018-12-22T04:53:54.150Z,82.00
2018-12-22T04:54:57.519Z,82.30
2018-12-22T04:56:00.777Z,81.90
2018-12-22T04:57:04.004Z,82.30
2018-12-22T04:58:07.249Z,82.30
2018-12-22T04:59:10.468Z,81.40
2018-12-22T05:00:14.027Z,81.60
2018-12-22T05:01:17.268Z,81.60
2018-12-22T05:02:20.486Z,81.30
2018-12-22T05:03:23.731Z,81.10
2018-12-22T05:04:26.972Z,80.90
2018-12-22T05:05:30.208Z,81.20
2018-12-22T05:06:33.466Z,80.30
2018-12-22T05:07:36.704Z,80.20
2018-12-22T05:08:39.968Z,80.20
2018-12-22T05:09:43.205Z,80.40
2018-12-22T05:10:46.459Z,80.10
2018-12-22T05:11:49.716Z,80.20
2018-12-22T05:12:52.958Z,80.10
2018-12-22T05:13:56.204Z,79.50
2018-12-22T05:14:59.451Z,79.70
2018-12-22T05:16:02.710Z,79.50
2018-12-22T05:17:05.956Z,79.50
2018-12-22T05:18:09.274Z,79.10
2018-12-22T05:19:12.512Z,78.90
2018-12-22T05:20:15.749Z,78.20
2018-12-22T05:21:18.992Z,78.10
2018-12-22T05:22:22.770Z,78.70
2018-12-22T05:23:25.993Z,78.50
2018-12-22T05:24:29.240Z,78.10
2018-12-22T05:25:32.474Z,78.00
2018-12-22T05:26:35.756Z,77.70
2018-12-22T05:27:39.028Z,77.80
2018-12-22T05:28:42.330Z,78.10
2018-12-22T05:29:51.709Z,78.10
2018-12-22T05:30:50.853Z,77.50
2018-12-22T05:31:54.123Z,77.70
2018-12-22T05:32:57.359Z,77.40
2018-12-22T05:34:00.601Z,77.10
2018-12-22T05:35:04.079Z,77.10
2018-12-22T05:36:07.360Z,77.30
2018-12-22T05:37:10.602Z,77.30
2018-12-22T05:38:13.852Z,77.10
2018-12-22T05:39:17.158Z,76.70
2018-12-22T05:40:20.375Z,76.50
2018-12-22T05:41:23.618Z,76.40
2018-12-22T05:42:26.868Z,76.60
2018-12-22T05:43:30.112Z,76.60
2018-12-22T05:44:33.410Z,75.60
2018-12-22T05:45:36.708Z,75.90
2018-12-22T05:46:39.937Z,76.00
2018-12-22T05:47:43.170Z,75.90
2018-12-22T05:48:46.550Z,75.80
2018-12-22T05:49:49.812Z,75.40
2018-12-22T05:50:53.063Z,75.00
2018-12-22T05:51:56.285Z,75.70
2018-12-22T05:52:59.532Z,76.10
2018-12-22T05:54:02.798Z,75.70
2018-12-22T05:55:06.125Z,76.30
2018-12-22T05:56:09.407Z,75.90
2018-12-22T05:57:12.654Z,76.10
2018-12-22T05:58:15.880Z,76.20
2018-12-22T05:59:19.148Z,76.10
2018-12-22T06:00:22.418Z,75.30
2018-12-22T06:01:25.663Z,75.60
2018-12-22T06:02:28.989Z,76.10
2018-12-22T06:03:32.259Z,76.20
2018-12-22T06:04:35.618Z,76.30
2018-12-22T06:05:38.913Z,76.00
2018-12-22T06:06:42.154Z,76.80
2018-12-22T06:07:45.501Z,75.00
2018-12-22T06:08:48.732Z,75.40
2018-12-22T06:09:51.974Z,75.70
2018-12-22T06:10:55.301Z,75.60
2018-12-22T06:11:58.548Z,75.50
2018-12-22T06:13:01.866Z,75.70
2018-12-22T06:14:05.199Z,75.70
2018-12-22T06:15:08.490Z,76.10
2018-12-22T06:16:11.862Z,76.10
2018-12-22T06:17:15.106Z,76.20
2018-12-22T06:18:18.362Z,76.50
2018-12-22T06:19:21.650Z,76.10
2018-12-22T06:20:24.898Z,76.20
2018-12-22T06:21:28.134Z,76.20
2018-12-22T06:22:31.426Z,76.10
2018-12-22T06:23:34.660Z,76.30
2018-12-22T06:24:37.993Z,76.30
2018-12-22T06:25:41.234Z,76.20
2018-12-22T06:26:44.452Z,76.30
2018-12-22T06:27:47.730Z,76.50
2018-12-22T06:28:50.984Z,76.10
2018-12-22T06:29:54.222Z,76.30
2018-12-22T06:30:57.587Z,76.40
2018-12-22T06:32:00.902Z,76.40
2018-12-22T06:33:04.163Z,76.50
2018-12-22T06:34:07.441Z,76.50
2018-12-22T06:35:10.769Z,76.40
2018-12-22T06:36:14.105Z,76.70
2018-12-22T06:37:17.330Z,76.40
2018-12-22T06:38:20.614Z,76.70
2018-12-22T06:39:24.068Z,76.70
2018-12-22T06:40:27.290Z,76.30
2018-12-22T06:41:30.516Z,76.30
2018-12-22T06:42:33.774Z,76.00
2018-12-22T06:43:37.025Z,75.50
2018-12-22T06:44:40.406Z,75.40
2018-12-22T06:45:43.673Z,75.00
2018-12-22T06:46:47.566Z,75.30
2018-12-22T06:47:50.804Z,75.40
2018-12-22T06:48:54.038Z,75.70
2018-12-22T06:49:57.277Z,75.70
2018-12-22T06:51:00.616Z,75.40
2018-12-22T06:52:03.848Z,75.20
2018-12-22T06:53:07.166Z,75.00
2018-12-22T06:54:10.436Z,75.10
2018-12-22T06:55:13.697Z,74.80
2018-12-22T06:56:16.930Z,74.90
2018-12-22T06:57:20.214Z,74.40
2018-12-22T06:58:23.460Z,74.70
2018-12-22T06:59:26.722Z,74.20
2018-12-22T07:00:30.050Z,73.30
2018-12-22T07:01:33.307Z,73.30
2018-12-22T07:02:36.557Z,73.40
2018-12-22T07:03:39.822Z,73.50
2018-12-22T07:04:43.073Z,73.50
2018-12-22T07:05:46.313Z,73.90
2018-12-22T07:06:49.580Z,73.50
2018-12-22T07:07:52.843Z,73.70
2018-12-22T07:08:56.070Z,73.70
2018-12-22T07:09:59.341Z,73.70
2018-12-22T07:11:02.561Z,73.90
2018-12-22T07:12:06.037Z,73.80
2018-12-22T07:13:09.332Z,73.70
2018-12-22T07:14:12.560Z,73.90
2018-12-22T07:15:15.963Z,73.70
2018-12-22T07:16:19.217Z,73.70
2018-12-22T07:17:22.492Z,73.60
2018-12-22T07:18:25.748Z,73.30
2018-12-22T07:19:28.987Z,73.40
2018-12-22T07:20:32.267Z,73.20
2018-12-22T07:21:35.526Z,73.50
2018-12-22T07:22:38.813Z,73.00
2018-12-22T07:23:42.054Z,73.10
2018-12-22T07:24:45.280Z,73.20
2018-12-22T07:25:48.542Z,73.00
2018-12-22T07:26:51.802Z,73.00
2018-12-22T07:27:55.045Z,73.20
2018-12-22T07:28:58.313Z,73.00
2018-12-22T07:30:02.230Z,72.70
2018-12-22T07:31:05.633Z,72.70
2018-12-22T07:32:08.862Z,72.00
2018-12-22T07:33:12.089Z,72.20
2018-12-22T07:34:15.331Z,72.50
2018-12-22T07:35:18.644Z,72.50
2018-12-22T07:36:21.893Z,72.50
2018-12-22T07:37:25.175Z,72.20
2018-12-22T07:38:28.594Z,72.10
2018-12-22T07:39:31.833Z,72.10
2018-12-22T07:40:35.124Z,71.90
2018-12-22T07:41:38.393Z,71.80
2018-12-22T07:42:41.645Z,71.70
2018-12-22T07:43:44.908Z,70.90
2018-12-22T07:44:48.140Z,70.50
2018-12-22T07:45:51.513Z,70.70
2018-12-22T07:46:54.864Z,71.20
2018-12-22T07:47:58.120Z,71.10
2018-12-22T07:49:01.397Z,70.90
2018-12-22T07:50:05.462Z,70.90
2018-12-22T07:51:08.711Z,70.70
2018-12-22T07:52:11.949Z,71.10
2018-12-22T07:53:15.224Z,71.00
2018-12-22T07:54:18.438Z,70.90
2018-12-22T07:55:21.708Z,71.20
2018-12-22T07:56:24.963Z,70.90
2018-12-22T07:57:28.223Z,70.30
2018-12-22T07:58:31.483Z,69.90
2018-12-22T07:59:34.722Z,70.60
2018-12-22T08:00:37.982Z,69.80
2018-12-22T08:01:41.245Z,70.10
2018-12-22T08:02:44.527Z,71.20
2018-12-22T08:03:47.807Z,70.50
2018-12-22T08:04:51.051Z,70.10
2018-12-22T08:05:54.298Z,70.50
2018-12-22T08:06:57.618Z,70.00
2018-12-22T08:08:00.863Z,69.90
2018-12-22T08:09:06.133Z,70.20
2018-12-22T08:10:09.374Z,69.70
2018-12-22T08:11:12.613Z,69.80
2018-12-22T08:12:15.997Z,70.10
2018-12-22T08:13:19.310Z,70.00
2018-12-22T08:14:22.555Z,69.80
2018-12-22T08:15:25.923Z,70.20
2018-12-22T08:16:29.175Z,69.60
2018-12-22T08:17:32.424Z,69.60
2018-12-22T08:18:35.675Z,69.80
2018-12-22T08:19:38.900Z,69.70
2018-12-22T08:20:42.158Z,70.10
2018-12-22T08:21:45.403Z,70.20
2018-12-22T08:22:48.920Z,70.00
2018-12-22T08:23:52.108Z,70.70
2018-12-22T08:24:55.355Z,70.10
2018-12-22T08:25:58.628Z,70.20
2018-12-22T08:27:02.268Z,69.90
2018-12-22T08:28:05.651Z,70.10
2018-12-22T08:29:08.934Z,69.40
2018-12-22T08:30:12.189Z,70.10
2018-12-22T08:31:15.525Z,70.00
2018-12-22T08:32:18.782Z,70.10
2018-12-22T08:33:22.047Z,69.30
2018-12-22T08:34:25.395Z,69.90
2018-12-22T08:35:28.627Z,69.40
2018-12-22T08:36:31.875Z,69.30
2018-12-22T08:37:35.550Z,69.00
2018-12-22T08:38:38.904Z,69.10
2018-12-22T08:39:42.296Z,69.20
2018-12-22T08:40:45.544Z,68.80
2018-12-22T08:41:48.780Z,69.20
2018-12-22T08:42:52.051Z,69.10
2018-12-22T08:43:55.313Z,69.30
2018-12-22T08:44:58.525Z,69.40
2018-12-22T08:46:01.799Z,69.80
2018-12-22T08:47:05.129Z,70.00
2018-12-22T08:48:09.059Z,70.10
2018-12-22T08:49:12.325Z,70.10
2018-12-22T08:50:15.576Z,70.30
2018-12-22T08:51:18.953Z,70.20
2018-12-22T08:52:22.329Z,70.20
2018-12-22T08:53:25.583Z,70.50
2018-12-22T08:54:28.846Z,70.10
2018-12-22T08:55:32.110Z,70.20
2018-12-22T08:56:35.383Z,69.80
2018-12-22T08:57:38.710Z,69.90
2018-12-22T08:58:41.960Z,70.00
2018-12-22T08:59:45.196Z,70.20
2018-12-22T09:00:52.360Z,70.20
2018-12-22T09:01:53.730Z,70.40
2018-12-22T09:02:56.968Z,70.00
2018-12-22T09:04:00.246Z,69.80
2018-12-22T09:05:04.872Z,69.80
2018-12-22T09:06:08.114Z,69.40
2018-12-22T09:07:11.421Z,69.70
2018-12-22T09:08:14.654Z,69.80
2018-12-22T09:09:17.894Z,69.80
2018-12-22T09:10:21.131Z,70.00
2018-12-22T09:11:24.432Z,69.80
2018-12-22T09:12:27.736Z,69.90
2018-12-22T09:13:30.986Z,69.90
2018-12-22T09:14:34.566Z,69.90
2018-12-22T09:15:37.882Z,70.10
2018-12-22T09:16:41.609Z,70.10
2018-12-22T09:17:45.038Z,70.10
2018-12-22T09:18:48.267Z,69.50
2018-12-22T09:19:51.595Z,69.50
2018-12-22T09:20:54.883Z,69.40
2018-12-22T09:21:58.123Z,69.80
2018-12-22T09:23:01.396Z,69.80
2018-12-22T09:24:04.705Z,69.20
2018-12-22T09:25:08.251Z,69.50
2018-12-22T09:26:11.494Z,69.40
2018-12-22T09:27:14.750Z,69.20
2018-12-22T09:28:17.992Z,69.40
2018-12-22T09:29:21.382Z,69.60
2018-12-22T09:30:24.698Z,69.90
2018-12-22T09:31:27.970Z,70.00
2018-12-22T09:32:31.218Z,70.00
2018-12-22T09:33:34.491Z,69.80
2018-12-22T09:34:37.766Z,69.60
2018-12-22T09:35:41.006Z,69.50
2018-12-22T09:36:44.269Z,69.60
2018-12-22T09:37:47.528Z,69.40
2018-12-22T09:38:50.882Z,69.20
2018-12-22T09:39:54.122Z,69.30
2018-12-22T09:40:57.352Z,69.00
2018-12-22T09:42:00.594Z,69.20
2018-12-22T09:43:03.861Z,69.40
2018-12-22T09:44:07.145Z,69.40
2018-12-22T09:45:10.373Z,69.20
2018-12-22T09:46:13.604Z,69.40
2018-12-22T09:47:16.836Z,68.90
2018-12-22T09:48:20.158Z,68.40
2018-12-22T09:49:23.493Z,69.20
2018-12-22T09:50:26.822Z,68.00
2018-12-22T09:51:30.084Z,68.60
2018-12-22T09:52:33.329Z,68.60
2018-12-22T09:53:36.574Z,68.90
2018-12-22T09:54:39.927Z,68.50
2018-12-22T09:55:43.183Z,67.80
2018-12-22T09:56:46.481Z,68.20
2018-12-22T09:57:49.733Z,68.40
2018-12-22T09:58:52.990Z,68.50
2018-12-22T09:59:56.247Z,68.30
2018-12-22T10:00:59.542Z,68.00
2018-12-22T10:02:03.141Z,68.10
2018-12-22T10:03:06.377Z,67.30
2018-12-22T10:04:09.610Z,67.80
2018-12-22T10:05:12.887Z,67.40
2018-12-22T10:06:16.137Z,67.50
2018-12-22T10:07:19.431Z,67.10
2018-12-22T10:08:22.629Z,66.80
2018-12-22T10:09:25.876Z,67.00
2018-12-22T10:10:29.127Z,66.70
2018-12-22T10:11:32.348Z,66.70
2018-12-22T10:12:35.601Z,66.80
2018-12-22T10:13:38.860Z,67.10
2018-12-22T10:14:42.180Z,67.40
2018-12-22T10:15:45.488Z,67.50
2018-12-22T10:16:48.770Z,67.20
2018-12-22T10:17:52.047Z,67.10
2018-12-22T10:18:55.332Z,67.10
2018-12-22T10:19:58.592Z,66.60
2018-12-22T10:21:01.858Z,66.50
2018-12-22T10:22:05.137Z,66.80
2018-12-22T10:23:08.429Z,66.80
2018-12-22T10:24:11.699Z,66.90
2018-12-22T10:25:14.929Z,66.70
2018-12-22T10:26:18.235Z,66.30
2018-12-22T10:27:22.526Z,66.30
2018-12-22T10:28:25.852Z,66.20
2018-12-22T10:29:29.166Z,65.80
2018-12-22T10:30:32.727Z,66.00
2018-12-22T10:31:36.074Z,65.60
2018-12-22T10:32:39.343Z,65.60
2018-12-22T10:33:42.561Z,65.20
2018-12-22T10:34:45.826Z,65.10
2018-12-22T10:35:49.132Z,64.70
2018-12-22T10:36:52.344Z,65.00
2018-12-22T10:37:55.590Z,65.10
2018-12-22T10:38:58.971Z,64.80
2018-12-22T10:40:03.185Z,65.00
2018-12-22T10:41:06.559Z,64.40
2018-12-22T10:42:09.829Z,64.60
2018-12-22T10:43:13.057Z,64.00
2018-12-22T10:44:16.319Z,64.10
2018-12-22T10:45:19.624Z,64.30
2018-12-22T10:46:23.706Z,64.10
2018-12-22T10:47:27.005Z,64.70
2018-12-22T10:48:30.200Z,63.90
2018-12-22T10:49:33.487Z,64.00
2018-12-22T10:50:36.720Z,64.40
2018-12-22T10:51:40.016Z,64.40
2018-12-22T10:52:43.244Z,64.50
2018-12-22T10:53:46.588Z,64.60
2018-12-22T10:54:49.896Z,64.90
2018-12-22T10:55:53.280Z,64.90
2018-12-22T10:56:56.528Z,65.30
2018-12-22T10:58:00.065Z,65.00
2018-12-22T10:59:03.416Z,65.10
2018-12-22T11:00:10.209Z,65.40
2018-12-22T11:01:13.576Z,65.10
2018-12-22T11:02:17.033Z,65.70
2018-12-22T11:03:20.290Z,65.80
2018-12-22T11:04:23.557Z,65.80
2018-12-22T11:05:26.858Z,65.90
2018-12-22T11:06:30.115Z,66.00
2018-12-22T11:07:33.342Z,65.90
2018-12-22T11:08:36.688Z,66.20
2018-12-22T11:09:39.941Z,66.00
2018-12-22T11:10:43.216Z,66.00
2018-12-22T11:11:46.484Z,66.20
2018-12-22T11:12:49.727Z,66.20
2018-12-22T11:13:53.055Z,66.10
2018-12-22T11:14:56.311Z,66.30
2018-12-22T11:15:59.550Z,66.40
2018-12-22T11:17:02.903Z,66.40
2018-12-22T11:18:06.361Z,66.50
2018-12-22T11:19:09.599Z,66.30
2018-12-22T11:20:12.824Z,66.40
2018-12-22T11:21:16.124Z,66.60
2018-12-22T11:22:19.406Z,66.60
2018-12-22T11:23:22.676Z,66.50
2018-12-22T11:24:26.040Z,66.00
2018-12-22T11:25:29.352Z,65.90
2018-12-22T11:26:32.586Z,66.30
2018-12-22T11:27:35.834Z,66.00
2018-12-22T11:28:39.070Z,66.00
2018-12-22T11:29:42.382Z,66.20
2018-12-22T11:30:45.659Z,66.20
2018-12-22T11:31:48.904Z,66.10
2018-12-22T11:32:52.291Z,66.30
2018-12-22T11:33:55.781Z,66.50
2018-12-22T11:34:59.068Z,66.30
2018-12-22T11:36:02.343Z,66.40
2018-12-22T11:37:05.621Z,66.20
2018-12-22T11:38:08.882Z,66.30
2018-12-22T11:39:12.165Z,66.50
2018-12-22T11:40:15.463Z,66.10
2018-12-22T11:41:18.808Z,66.30
2018-12-22T11:42:23.382Z,66.00
2018-12-22T11:43:26.908Z,66.10
2018-12-22T11:44:30.218Z,66.40
2018-12-22T11:45:33.504Z,66.40
2018-12-22T11:46:37.152Z,66.30
2018-12-22T11:47:42.871Z,66.40
2018-12-22T11:48:47.319Z,66.20
2018-12-22T11:49:50.566Z,66.50
2018-12-22T11:50:53.829Z,66.30
2018-12-22T11:51:57.076Z,66.40
2018-12-22T11:53:00.444Z,66.30
2018-12-22T11:54:03.699Z,66.60
2018-12-22T11:55:08.028Z,66.80
2018-12-22T11:56:11.245Z,66.60
2018-12-22T11:57:14.572Z,66.70
2018-12-22T11:58:18.471Z,66.70
2018-12-22T11:59:21.733Z,66.70
2018-12-22T12:00:24.990Z,66.20
2018-12-22T12:01:28.259Z,66.40
2018-12-22T12:02:31.606Z,66.30
2018-12-22T12:03:34.892Z,66.60
2018-12-22T12:04:38.172Z,66.20
2018-12-22T12:05:41.398Z,66.50
2018-12-22T12:06:44.645Z,66.30
2018-12-22T12:07:48.666Z,66.10
2018-12-22T12:08:52.385Z,66.20
2018-12-22T12:09:55.637Z,66.00
2018-12-22T12:11:00.480Z,66.50
2018-12-22T12:12:04.135Z,66.30
2018-12-22T12:13:07.376Z,66.50
2018-12-22T12:14:10.588Z,66.20
2018-12-22T12:15:16.919Z,66.20
2018-12-22T12:16:20.355Z,66.50
2018-12-22T12:17:32.059Z,66.60
2018-12-22T12:18:48.342Z,66.20
2018-12-22T12:19:51.713Z,66.30
2018-12-22T12:20:54.952Z,66.50
2018-12-22T12:21:58.285Z,66.60
2018-12-22T12:23:01.520Z,66.60
2018-12-22T12:24:04.876Z,66.60
2018-12-22T12:25:08.078Z,66.60
2018-12-22T12:26:11.349Z,66.50
2018-12-22T12:27:14.588Z,66.60
2018-12-22T12:28:17.878Z,66.70
2018-12-22T12:29:21.153Z,66.60
2018-12-22T12:30:24.396Z,66.80
2018-12-22T12:31:27.644Z,66.80
2018-12-22T12:32:30.878Z,66.80
2018-12-22T12:33:34.124Z,66.90
2018-12-22T12:34:37.382Z,66.50
2018-12-22T12:35:40.617Z,66.50
2018-12-22T12:36:43.881Z,66.50
2018-12-22T12:37:47.228Z,66.50
2018-12-22T12:38:50.519Z,66.60
2018-12-22T12:39:53.760Z,66.60
2018-12-22T12:40:57.013Z,66.60
2018-12-22T12:42:00.319Z,66.70
2018-12-22T12:43:03.569Z,66.70
2018-12-22T12:44:06.840Z,66.70
2018-12-22T12:45:12.908Z,66.50
2018-12-22T12:46:16.248Z,66.60
2018-12-22T12:47:19.515Z,66.60
2018-12-22T12:48:23.810Z,66.80
2018-12-22T12:49:27.107Z,66.70
2018-12-22T12:50:30.359Z,66.60
2018-12-22T12:51:33.717Z,66.70
2018-12-22T12:52:36.938Z,66.70
2018-12-22T12:53:40.176Z,66.60
2018-12-22T12:54:43.459Z,66.80
2018-12-22T12:55:46.739Z,66.70
2018-12-22T12:56:49.963Z,66.70
2018-12-22T12:57:53.264Z,66.70
2018-12-22T12:58:56.482Z,66.60
2018-12-22T12:59:59.730Z,66.80
2018-12-22T13:01:03.000Z,66.80
2018-12-22T13:02:06.291Z,67.40
2018-12-22T13:03:09.568Z,66.60
2018-12-22T13:04:12.822Z,66.60
2018-12-22T13:05:16.103Z,66.70
2018-12-22T13:06:19.341Z,66.80
2018-12-22T13:07:22.607Z,66.80
2018-12-22T13:08:25.874Z,66.80
2018-12-22T13:09:29.136Z,66.60
2018-12-22T13:10:32.497Z,66.80
2018-12-22T13:11:35.779Z,66.70
2018-12-22T13:14:16.138Z,66.60
2018-12-22T13:15:19.416Z,66.60
2018-12-22T13:16:22.760Z,66.70
2018-12-22T13:17:25.987Z,66.80
2018-12-22T13:18:29.233Z,66.80
2018-12-22T13:19:32.623Z,66.90
2018-12-22T13:20:36.024Z,66.90
2018-12-22T13:21:39.294Z,66.70
2018-12-22T13:22:42.940Z,66.90
2018-12-22T13:23:46.170Z,67.00
2018-12-22T13:24:49.412Z,67.30
2018-12-22T13:25:52.681Z,67.50
2018-12-22T13:26:56.607Z,67.50
2018-12-22T13:27:59.877Z,67.20
2018-12-22T13:29:03.183Z,67.20
2018-12-22T13:30:10.831Z,67.20
2018-12-22T13:31:15.264Z,67.30
2018-12-22T13:32:18.514Z,67.10
2018-12-22T13:33:21.835Z,67.10
2018-12-22T13:34:25.136Z,67.00
2018-12-22T13:35:28.400Z,66.80
2018-12-22T13:36:34.774Z,67.00
2018-12-22T13:37:36.934Z,66.50